Meco, Spain
Current Conditions -  °F | °C
As of 1:00 PM on Sunday 23 Nov 2014 (Local Time) from LETO Reporting Station
Scattered Clouds Scattered Clouds  
Wind Chill: 63°   Ceiling: Unl
Heat Index: 63°   Visibility: 6mi
Dew Point: 52°   Wind: 10mph
Humidity: 68%   Direction: 160°SSE
Pressure: 29.94"   Gusts: NA
Location:  40.55°N, 3.33°W
Report Text: LETO 231200Z 16009KT 140V210 9999 FEW040 SCT075 17/11 Q1014 NOSIG
Loading
Personal Weather Stations






























Interactive Weather Map New forecast layout! Learn more

10-Day Weather Forecast

Advertisements
Track Severe Weather on mobile